createdAt,value
2023-03-07T00:00:17.046Z,30.15
2023-03-07T00:02:44.294Z,31.25
2023-03-07T00:05:13.492Z,36.88
2023-03-07T00:07:40.587Z,38.45
2023-03-07T00:10:08.969Z,36.67
2023-03-07T00:12:36.143Z,37.00
2023-03-07T00:15:04.156Z,33.55
2023-03-07T00:17:31.443Z,38.28
2023-03-07T00:19:58.816Z,38.80
2023-03-07T00:22:25.994Z,36.67
2023-03-07T00:24:53.406Z,36.95
2023-03-07T00:27:20.527Z,35.90
2023-03-07T00:29:49.663Z,34.55
2023-03-07T00:32:17.087Z,33.13
2023-03-07T00:34:44.261Z,37.88
2023-03-07T00:37:11.376Z,34.28
2023-03-07T00:39:38.551Z,35.00
2023-03-07T00:42:05.878Z,34.75
2023-03-07T00:44:33.199Z,35.53
2023-03-07T00:47:00.366Z,35.67
2023-03-07T00:49:28.094Z,29.20
2023-03-07T00:51:55.341Z,28.83
2023-03-07T00:54:22.803Z,28.90
2023-03-07T00:56:50.039Z,26.00
2023-03-07T00:59:17.861Z,26.58
2023-03-07T01:01:45.252Z,29.00
2023-03-07T01:04:12.459Z,28.95
2023-03-07T01:06:39.547Z,29.70
2023-03-07T01:09:08.049Z,32.85
2023-03-07T01:11:36.703Z,31.67
2023-03-07T01:14:06.138Z,27.83
2023-03-07T01:16:37.706Z,28.63
2023-03-07T01:19:11.775Z,29.65
2023-03-07T01:21:42.080Z,24.65
2023-03-07T01:24:13.744Z,25.83
2023-03-07T01:26:41.807Z,25.77
2023-03-07T01:29:11.172Z,29.35
2023-03-07T01:31:38.348Z,27.08
2023-03-07T01:34:07.008Z,25.63
2023-03-07T01:36:36.977Z,26.83
2023-03-07T01:39:07.431Z,26.85
2023-03-07T01:41:38.107Z,32.08
2023-03-07T01:44:20.000Z,26.65
2023-03-07T01:46:59.927Z,28.58
2023-03-07T01:49:50.365Z,26.00
2023-03-07T01:52:33.834Z,28.23
2023-03-07T01:55:16.050Z,28.70
2023-03-07T01:57:48.851Z,28.80
2023-03-07T02:00:29.259Z,26.70
2023-03-07T02:03:19.229Z,27.42
2023-03-07T02:06:00.805Z,27.20
2023-03-07T02:08:31.101Z,28.52
2023-03-07T02:10:58.224Z,32.70
2023-03-07T02:13:25.714Z,30.52
2023-03-07T02:15:53.104Z,29.23
2023-03-07T02:18:26.400Z,26.20
2023-03-07T02:20:59.446Z,23.77
2023-03-07T02:23:45.923Z,24.38
2023-03-07T02:26:32.049Z,29.38
2023-03-07T02:29:00.872Z,29.88
2023-03-07T02:31:29.558Z,25.88
2023-03-07T02:33:56.723Z,24.88
2023-03-07T02:36:30.093Z,21.42
2023-03-07T02:39:12.616Z,23.65
2023-03-07T02:41:40.084Z,22.00
2023-03-07T02:44:15.569Z,23.23
2023-03-07T02:46:42.842Z,22.95
2023-03-07T02:49:10.079Z,24.42
2023-03-07T02:51:37.190Z,25.92
2023-03-07T02:54:04.693Z,26.90
2023-03-07T02:56:32.274Z,24.55
2023-03-07T02:58:59.502Z,29.30
2023-03-07T03:01:27.050Z,29.00
2023-03-07T03:03:55.418Z,28.98
2023-03-07T03:06:22.714Z,25.48
2023-03-07T03:08:50.014Z,22.88
2023-03-07T03:11:17.232Z,26.65
2023-03-07T03:13:45.400Z,24.42
2023-03-07T03:16:12.777Z,21.25
2023-03-07T03:18:40.036Z,17.70
2023-03-07T03:21:09.787Z,16.77
2023-03-07T03:23:38.201Z,14.60
2023-03-07T03:26:10.684Z,15.93
2023-03-07T03:28:39.467Z,18.15
2023-03-07T03:31:14.609Z,27.20
2023-03-07T03:33:46.262Z,25.50
2023-03-07T03:36:16.628Z,19.73
2023-03-07T03:38:46.482Z,19.50
2023-03-07T03:41:17.912Z,25.63
2023-03-07T03:43:47.537Z,20.02
2023-03-07T03:46:17.111Z,25.52
2023-03-07T03:48:49.998Z,28.48
2023-03-07T03:51:17.396Z,20.02
2023-03-07T03:53:44.867Z,23.83
2023-03-07T03:56:19.362Z,16.85
2023-03-07T03:58:50.990Z,26.17
2023-03-07T04:01:20.364Z,15.02
2023-03-07T04:03:50.329Z,13.52
2023-03-07T04:06:28.060Z,21.50
2023-03-07T04:08:57.020Z,21.03
2023-03-07T04:11:25.243Z,16.80
2023-03-07T04:13:52.841Z,17.65
2023-03-07T04:16:24.249Z,17.10
2023-03-07T04:18:52.234Z,17.33
2023-03-07T04:21:20.626Z,14.38
2023-03-07T04:23:49.872Z,15.02
2023-03-07T04:26:17.393Z,15.55
2023-03-07T04:28:44.771Z,19.35
2023-03-07T04:31:26.431Z,22.67
2023-03-07T04:33:57.000Z,19.55
2023-03-07T04:36:25.674Z,21.10
2023-03-07T04:38:53.010Z,20.85
2023-03-07T04:41:25.602Z,14.63
2023-03-07T04:44:03.425Z,16.08
2023-03-07T04:46:30.817Z,29.23
2023-03-07T04:48:58.300Z,28.67
2023-03-07T04:51:25.699Z,30.55
2023-03-07T04:53:52.988Z,32.20
2023-03-07T04:56:20.144Z,25.17
2023-03-07T04:58:48.230Z,24.05
2023-03-07T05:01:17.603Z,43.50
2023-03-07T05:03:45.233Z,50.05
2023-03-07T05:06:15.539Z,44.97
2023-03-07T05:08:46.957Z,49.20
2023-03-07T05:11:14.627Z,51.67
2023-03-07T05:13:42.448Z,43.30
2023-03-07T05:16:10.301Z,45.55
2023-03-07T05:18:37.757Z,52.95
2023-03-07T05:21:05.689Z,56.75
2023-03-07T05:23:33.363Z,51.33
2023-03-07T05:26:00.497Z,48.08
2023-03-07T05:28:27.724Z,36.45
2023-03-07T05:30:54.981Z,31.33
2023-03-07T05:33:22.749Z,40.95
2023-03-07T05:35:50.082Z,44.60
2023-03-07T05:38:18.335Z,49.50
2023-03-07T05:40:45.860Z,46.30
2023-03-07T05:43:14.347Z,48.70
2023-03-07T05:45:41.628Z,53.28
2023-03-07T05:48:08.854Z,47.65
2023-03-07T05:50:38.462Z,41.35
2023-03-07T05:53:05.870Z,39.05
2023-03-07T05:55:33.994Z,45.33
2023-03-07T05:58:01.194Z,56.70
2023-03-07T06:00:29.073Z,47.05
2023-03-07T06:03:04.163Z,41.47
2023-03-07T06:05:32.492Z,39.40
2023-03-07T06:08:00.276Z,41.10
2023-03-07T06:10:27.809Z,37.35
2023-03-07T06:12:55.692Z,35.05
2023-03-07T06:15:24.570Z,31.58
2023-03-07T06:17:58.203Z,33.67
2023-03-07T06:20:25.744Z,34.88
2023-03-07T06:22:55.286Z,36.30
2023-03-07T06:25:23.138Z,33.40
2023-03-07T06:27:50.285Z,37.30
2023-03-07T06:30:17.744Z,14.73
2023-03-07T06:32:45.634Z,36.88
2023-03-07T06:35:13.009Z,154.75
2023-03-07T06:37:40.521Z,104.18
2023-03-07T06:40:10.204Z,89.65
2023-03-07T06:42:39.241Z,95.68
2023-03-07T06:45:08.457Z,70.32
2023-03-07T06:47:35.920Z,36.70
2023-03-07T06:50:05.242Z,46.43
2023-03-07T06:52:33.925Z,45.45
2023-03-07T06:55:01.346Z,23.77
2023-03-07T06:57:30.315Z,19.88
2023-03-07T06:59:57.540Z,25.00
2023-03-07T07:02:25.320Z,31.52
2023-03-07T07:04:52.754Z,28.42
2023-03-07T07:07:20.695Z,32.30
2023-03-07T07:09:47.864Z,28.77
2023-03-07T07:12:15.218Z,28.83
2023-03-07T07:14:42.522Z,26.95
2023-03-07T07:17:10.024Z,30.27
2023-03-07T07:19:37.336Z,29.88
2023-03-07T07:22:08.061Z,32.28
2023-03-07T07:24:35.416Z,30.00
2023-03-07T07:27:02.888Z,33.05
2023-03-07T07:29:30.187Z,37.97
2023-03-07T07:31:57.615Z,57.03
2023-03-07T07:34:25.255Z,41.92
2023-03-07T07:36:52.780Z,38.58
2023-03-07T07:39:21.220Z,37.85
2023-03-07T07:41:48.396Z,34.30
2023-03-07T07:44:17.024Z,32.33
2023-03-07T07:46:53.354Z,29.23
2023-03-07T07:49:20.683Z,29.67
2023-03-07T07:51:47.907Z,33.30
2023-03-07T07:54:15.137Z,31.10
2023-03-07T07:56:42.937Z,30.48
2023-03-07T07:59:10.215Z,27.92
2023-03-07T08:01:37.976Z,28.25
2023-03-07T08:04:05.527Z,21.88
2023-03-07T08:06:32.796Z,27.15
2023-03-07T08:09:00.480Z,28.55
2023-03-07T08:11:27.932Z,31.05
2023-03-07T08:13:55.391Z,31.13
2023-03-07T08:16:23.700Z,34.20
2023-03-07T08:18:56.599Z,34.60
2023-03-07T08:21:25.521Z,28.73
2023-03-07T08:23:56.479Z,28.85
2023-03-07T08:26:23.906Z,31.65
2023-03-07T08:28:51.206Z,29.38
2023-03-07T08:31:25.400Z,25.33
2023-03-07T08:33:53.125Z,23.98
2023-03-07T08:36:20.682Z,22.90
2023-03-07T08:38:52.951Z,24.52
2023-03-07T08:41:22.429Z,15.48
2023-03-07T08:43:49.815Z,14.65
2023-03-07T08:46:17.040Z,14.05
2023-03-07T08:48:44.455Z,12.57
2023-03-07T08:51:15.512Z,16.38
2023-03-07T08:53:44.415Z,21.05
2023-03-07T08:56:17.660Z,29.40
2023-03-07T08:58:45.219Z,17.58
2023-03-07T09:01:12.692Z,13.50
2023-03-07T09:03:40.076Z,12.07
2023-03-07T09:06:07.746Z,11.30
2023-03-07T09:08:34.931Z,9.00
2023-03-07T09:11:04.794Z,10.55
2023-03-07T09:13:35.910Z,6.93
2023-03-07T09:16:07.263Z,8.48
2023-03-07T09:18:35.690Z,10.15
2023-03-07T09:21:05.112Z,10.88
2023-03-07T09:23:33.431Z,10.40
2023-03-07T09:26:05.185Z,7.00
2023-03-07T09:28:32.452Z,6.22
2023-03-07T09:31:05.557Z,6.57
2023-03-07T09:33:33.191Z,9.80
2023-03-07T09:36:04.051Z,4.30
2023-03-07T09:38:31.265Z,4.38
2023-03-07T09:41:16.736Z,4.72
2023-03-07T09:44:13.538Z,5.75
2023-03-07T09:47:12.503Z,4.97
2023-03-07T09:49:50.489Z,5.50
2023-03-07T09:52:26.893Z,5.20
2023-03-07T09:55:16.906Z,4.18
2023-03-07T09:58:12.133Z,6.55
2023-03-07T10:00:42.458Z,3.60
2023-03-07T10:04:01.415Z,4.75
2023-03-07T10:06:41.247Z,5.90
2023-03-07T10:09:21.410Z,3.70
2023-03-07T10:12:27.896Z,4.82
2023-03-07T10:15:24.774Z,3.33
2023-03-07T10:18:34.398Z,3.92
2023-03-07T10:21:35.229Z,6.78
2023-03-07T10:24:52.845Z,3.10
2023-03-07T10:27:25.870Z,3.17
2023-03-07T10:29:56.234Z,4.47
2023-03-07T10:32:37.351Z,3.47
2023-03-07T10:35:21.240Z,3.22
2023-03-07T10:38:27.914Z,3.25
2023-03-07T10:41:03.358Z,4.75
2023-03-07T10:43:33.866Z,3.30
2023-03-07T10:46:23.579Z,4.32
2023-03-07T10:48:55.724Z,3.42
2023-03-07T10:51:59.890Z,3.97
2023-03-07T10:54:35.242Z,3.22
2023-03-07T10:57:15.817Z,3.97
2023-03-07T10:59:49.519Z,3.75
2023-03-07T11:02:46.304Z,2.50
2023-03-07T11:05:32.968Z,2.47
2023-03-07T11:08:19.438Z,2.88
2023-03-07T11:10:46.771Z,2.28
2023-03-07T11:13:19.947Z,3.10
2023-03-07T11:15:48.360Z,3.75
2023-03-07T11:18:37.226Z,3.17
2023-03-07T11:21:04.692Z,3.05
2023-03-07T11:23:32.204Z,4.05
2023-03-07T11:26:21.305Z,3.58
2023-03-07T11:31:57.827Z,3.50
2023-03-07T11:34:44.087Z,2.75
2023-03-07T11:37:40.361Z,2.90
2023-03-07T11:40:31.010Z,3.05
2023-03-07T11:43:21.646Z,2.50
2023-03-07T11:46:29.842Z,2.35
2023-03-07T11:49:06.270Z,3.78
2023-03-07T11:52:04.023Z,1.95
2023-03-07T11:55:01.106Z,2.38
2023-03-07T11:58:03.852Z,2.17
2023-03-07T12:00:45.953Z,2.25
2023-03-07T12:03:42.284Z,2.50
2023-03-07T12:06:49.362Z,2.45
2023-03-07T12:09:31.307Z,2.33
2023-03-07T12:12:29.522Z,3.03
2023-03-07T12:15:15.682Z,1.95
2023-03-07T12:18:36.581Z,3.15
2023-03-07T12:21:13.501Z,1.85
2023-03-07T12:24:17.241Z,3.10
2023-03-07T12:27:26.252Z,2.20
2023-03-07T12:30:02.381Z,2.63
2023-03-07T12:32:33.635Z,2.38
2023-03-07T12:35:08.075Z,2.55
2023-03-07T12:38:21.335Z,3.67
2023-03-07T12:40:58.602Z,3.35
2023-03-07T12:43:46.801Z,2.78
2023-03-07T12:46:24.614Z,2.17
2023-03-07T12:48:59.441Z,1.85
2023-03-07T12:51:35.319Z,2.30
2023-03-07T12:54:40.068Z,2.35
2023-03-07T12:57:20.213Z,2.90
2023-03-07T12:59:50.153Z,2.95
2023-03-07T13:02:28.830Z,2.70
2023-03-07T13:04:58.336Z,5.70
2023-03-07T13:07:29.242Z,6.32
2023-03-07T13:09:59.338Z,3.97
2023-03-07T13:12:35.086Z,4.18
2023-03-07T13:15:26.808Z,2.13
2023-03-07T13:17:55.219Z,2.53
2023-03-07T13:20:28.346Z,7.47
2023-03-07T13:22:59.341Z,9.25
2023-03-07T13:25:27.512Z,4.40
2023-03-07T13:28:00.653Z,3.63
2023-03-07T13:30:33.350Z,6.03
2023-03-07T13:33:25.693Z,3.45
2023-03-07T13:35:59.358Z,4.35
2023-03-07T13:38:46.040Z,2.55
2023-03-07T13:41:33.606Z,5.20
2023-03-07T13:44:02.459Z,3.78
2023-03-07T13:46:46.682Z,3.88
2023-03-07T13:49:33.955Z,2.58
2023-03-07T13:52:34.497Z,4.72
2023-03-07T13:55:19.940Z,6.45
2023-03-07T13:57:47.864Z,5.13
2023-03-07T14:00:41.215Z,3.80
2023-03-07T14:03:36.660Z,2.08
2023-03-07T14:06:19.092Z,4.05
2023-03-07T14:08:48.850Z,3.58
2023-03-07T14:11:39.656Z,4.57
2023-03-07T14:14:46.830Z,5.03
2023-03-07T14:17:19.913Z,5.35
2023-03-07T14:20:10.892Z,6.13
2023-03-07T14:23:34.326Z,6.35
2023-03-07T14:26:21.366Z,6.10
2023-03-07T14:29:00.309Z,5.32
2023-03-07T14:31:36.516Z,5.03
2023-03-07T14:34:34.002Z,4.40
2023-03-07T14:37:07.223Z,11.82
2023-03-07T14:39:48.968Z,10.43
2023-03-07T14:42:22.815Z,7.35
2023-03-07T14:45:26.758Z,7.70
2023-03-07T14:48:11.733Z,9.90
2023-03-07T14:50:46.472Z,8.75
2023-03-07T14:53:27.665Z,5.30
2023-03-07T14:55:56.044Z,3.15
2023-03-07T14:58:28.240Z,3.67
2023-03-07T15:01:04.310Z,3.88
2023-03-07T15:03:32.322Z,3.42
2023-03-07T15:06:02.258Z,3.92
2023-03-07T15:08:34.577Z,3.95
2023-03-07T15:11:24.703Z,3.22
2023-03-07T15:13:57.554Z,3.50
2023-03-07T15:16:35.223Z,3.00
2023-03-07T15:19:31.470Z,2.75
2023-03-07T15:22:02.278Z,3.95
2023-03-07T15:24:36.614Z,4.97
2023-03-07T15:27:07.537Z,5.72
2023-03-07T15:29:34.688Z,3.90
2023-03-07T15:32:26.822Z,5.30
2023-03-07T15:35:07.303Z,4.47
2023-03-07T15:37:50.409Z,4.93
2023-03-07T15:40:21.784Z,6.93
2023-03-07T15:42:58.782Z,6.75
2023-03-07T15:45:59.208Z,5.63
2023-03-07T15:48:38.527Z,9.88
2023-03-07T15:51:16.218Z,6.10
2023-03-07T15:53:46.736Z,6.68
2023-03-07T15:56:26.255Z,10.32
2023-03-07T15:59:03.322Z,6.95
2023-03-07T16:01:30.709Z,4.95
2023-03-07T16:04:05.878Z,4.95
2023-03-07T16:06:41.152Z,3.97
2023-03-07T16:09:17.388Z,7.28
2023-03-07T16:11:45.985Z,4.70
2023-03-07T16:14:25.850Z,6.57
2023-03-07T16:17:00.936Z,6.30
2023-03-07T16:19:29.240Z,5.97
2023-03-07T16:21:56.896Z,6.30
2023-03-07T16:24:24.335Z,8.02
2023-03-07T16:26:51.720Z,8.88
2023-03-07T16:29:22.437Z,7.90
2023-03-07T16:31:50.040Z,9.07
2023-03-07T16:34:20.623Z,9.00
2023-03-07T16:36:47.996Z,8.63
2023-03-07T16:39:17.489Z,8.65
2023-03-07T16:41:48.737Z,7.03
2023-03-07T16:44:18.650Z,6.28
2023-03-07T16:47:01.036Z,9.15
2023-03-07T16:49:28.337Z,13.05
2023-03-07T16:52:04.984Z,11.95
2023-03-07T16:54:33.832Z,19.17
2023-03-07T16:57:01.929Z,25.27
2023-03-07T16:59:36.544Z,25.80
2023-03-07T17:02:17.231Z,31.63
2023-03-07T17:04:46.288Z,24.67
2023-03-07T17:07:23.216Z,23.50
2023-03-07T17:09:50.457Z,25.25
2023-03-07T17:12:24.516Z,23.35
2023-03-07T17:14:51.997Z,20.50
2023-03-07T17:17:35.945Z,28.55
2023-03-07T17:20:05.627Z,19.15
2023-03-07T17:22:33.143Z,18.70
2023-03-07T17:25:01.104Z,24.88
2023-03-07T17:27:28.346Z,25.65
2023-03-07T17:29:55.639Z,20.05
2023-03-07T17:32:22.912Z,17.83
2023-03-07T17:34:50.251Z,16.42
2023-03-07T17:37:17.590Z,16.35
2023-03-07T17:39:45.081Z,15.98
2023-03-07T17:42:12.342Z,13.63
2023-03-07T17:44:39.684Z,8.73
2023-03-07T17:47:07.243Z,10.15
2023-03-07T17:49:37.500Z,11.05
2023-03-07T17:52:06.962Z,9.70
2023-03-07T17:54:34.386Z,10.20
2023-03-07T17:57:02.736Z,9.25
2023-03-07T17:59:32.119Z,12.13
2023-03-07T18:01:59.527Z,9.18
2023-03-07T18:04:30.439Z,6.95
2023-03-07T18:06:59.587Z,7.22
2023-03-07T18:09:26.805Z,6.82
2023-03-07T18:11:54.176Z,7.88
2023-03-07T18:14:21.727Z,5.78
2023-03-07T18:16:49.083Z,7.10
2023-03-07T18:19:25.740Z,6.38
2023-03-07T18:21:54.887Z,7.28
2023-03-07T18:24:29.307Z,7.95
2023-03-07T18:27:01.766Z,23.40
2023-03-07T18:29:29.419Z,28.58
2023-03-07T18:31:56.780Z,30.40
2023-03-07T18:34:24.402Z,36.78
2023-03-07T18:36:53.666Z,28.08
2023-03-07T18:39:23.702Z,24.15
2023-03-07T18:41:51.324Z,25.17
2023-03-07T18:44:19.190Z,20.40
2023-03-07T18:46:46.967Z,15.23
2023-03-07T18:49:15.544Z,14.65
2023-03-07T18:51:45.195Z,16.83
2023-03-07T18:54:13.447Z,16.13
2023-03-07T18:56:42.123Z,15.88
2023-03-07T18:59:09.697Z,34.33
2023-03-07T19:01:38.925Z,29.30
2023-03-07T19:04:07.625Z,31.77
2023-03-07T19:06:42.130Z,34.15
2023-03-07T19:09:15.529Z,36.33
2023-03-07T19:11:43.101Z,35.22
2023-03-07T19:14:10.672Z,38.80
2023-03-07T19:16:38.468Z,80.65
2023-03-07T19:19:05.856Z,85.63
2023-03-07T19:21:32.992Z,78.72
2023-03-07T19:24:03.476Z,95.80
2023-03-07T19:26:30.849Z,78.20
2023-03-07T19:28:58.113Z,85.78
2023-03-07T19:31:27.499Z,89.68
2023-03-07T19:36:27.297Z,117.63
2023-03-07T19:38:58.383Z,55.60
2023-03-07T19:41:28.957Z,55.13
2023-03-07T19:43:59.024Z,51.85
2023-03-07T19:46:27.180Z,53.30
2023-03-07T19:48:54.877Z,57.85
2023-03-07T19:51:25.642Z,57.40
2023-03-07T19:53:56.936Z,54.42
2023-03-07T19:56:31.333Z,51.35
2023-03-07T19:59:01.243Z,45.38
2023-03-07T20:01:29.943Z,42.40
2023-03-07T20:03:57.788Z,37.90
2023-03-07T20:06:29.064Z,30.38
2023-03-07T20:08:58.511Z,28.63
2023-03-07T20:13:58.978Z,17.38
2023-03-07T20:16:28.704Z,15.75
2023-03-07T20:18:59.790Z,14.73
2023-03-07T20:21:28.723Z,14.15
2023-03-07T20:24:00.365Z,15.48
2023-03-07T20:26:34.582Z,14.73
2023-03-07T20:29:05.298Z,15.55
2023-03-07T20:31:33.833Z,14.45
2023-03-07T20:34:01.718Z,14.90
2023-03-07T20:36:32.757Z,16.25
2023-03-07T20:39:03.658Z,14.70
2023-03-07T20:41:33.213Z,16.85
2023-03-07T20:44:04.487Z,18.42
2023-03-07T20:46:32.937Z,23.85
2023-03-07T20:49:01.619Z,25.00
2023-03-07T20:51:32.504Z,31.98
2023-03-07T20:54:07.345Z,34.83
2023-03-07T20:56:37.433Z,35.58
2023-03-07T20:59:05.499Z,35.22
2023-03-07T21:01:34.909Z,31.88
2023-03-07T21:04:11.692Z,37.15
2023-03-07T21:06:42.674Z,36.42
2023-03-07T21:09:12.675Z,36.83
2023-03-07T21:11:44.579Z,41.20
2023-03-07T21:14:13.816Z,36.45
2023-03-07T21:16:42.462Z,34.78
2023-03-07T21:19:10.997Z,26.02
2023-03-07T21:21:38.740Z,20.52
2023-03-07T21:24:06.851Z,15.88
2023-03-07T21:26:35.936Z,16.08
2023-03-07T21:29:04.772Z,13.85
2023-03-07T21:31:35.178Z,14.68
2023-03-07T21:34:10.720Z,17.63
2023-03-07T21:36:38.004Z,19.58
2023-03-07T21:39:07.368Z,24.60
2023-03-07T21:44:02.156Z,19.50
2023-03-07T21:46:29.577Z,19.55
2023-03-07T21:48:59.043Z,17.80
2023-03-07T21:53:53.861Z,16.83
2023-03-07T21:56:23.845Z,19.83
2023-03-07T21:58:52.008Z,25.40
2023-03-07T22:01:26.561Z,22.33
2023-03-07T22:03:56.501Z,20.08
2023-03-07T22:06:25.061Z,18.75
2023-03-07T22:08:52.771Z,14.50
2023-03-07T22:11:20.240Z,14.68
2023-03-07T22:13:47.776Z,14.85
2023-03-07T22:16:20.502Z,15.95
2023-03-07T22:18:56.117Z,15.25
2023-03-07T22:21:25.594Z,14.70
2023-03-07T22:26:29.804Z,17.50
2023-03-07T22:28:58.034Z,14.13
2023-03-07T22:31:26.387Z,14.77
2023-03-07T22:33:53.800Z,18.00
2023-03-07T22:36:21.699Z,16.92
2023-03-07T22:38:55.648Z,17.80
2023-03-07T22:41:24.055Z,20.67
2023-03-07T22:43:52.005Z,20.35
2023-03-07T22:46:19.456Z,16.35
2023-03-07T22:48:46.713Z,19.80
2023-03-07T22:51:17.279Z,21.40
2023-03-07T22:53:44.921Z,23.45
2023-03-07T22:56:21.838Z,22.95
2023-03-07T22:58:49.302Z,22.80
2023-03-07T23:01:22.976Z,22.33
2023-03-07T23:03:51.506Z,24.13
2023-03-07T23:06:19.952Z,31.27
2023-03-07T23:08:50.623Z,32.50
2023-03-07T23:11:20.028Z,33.25
2023-03-07T23:13:47.432Z,35.17
2023-03-07T23:16:18.451Z,39.40
2023-03-07T23:18:50.048Z,39.53
2023-03-07T23:21:21.468Z,35.83
2023-03-07T23:23:51.607Z,41.08
2023-03-07T23:26:25.870Z,36.63
2023-03-07T23:28:53.744Z,37.53
2023-03-07T23:31:28.925Z,39.50
2023-03-07T23:33:58.924Z,36.70
2023-03-07T23:36:29.050Z,36.80
2023-03-07T23:38:57.901Z,49.28
2023-03-07T23:41:26.454Z,46.45
2023-03-07T23:43:58.997Z,44.42
2023-03-07T23:46:27.359Z,41.05
2023-03-07T23:48:55.752Z,43.10
2023-03-07T23:51:23.624Z,47.75
2023-03-07T23:53:50.979Z,52.15
2023-03-07T23:56:18.402Z,58.63
2023-03-07T23:58:52.072Z,54.40
